aviador You're here:

KGGW Decoded Metar

GLASGOW in MT, USA
Report Time2018-06-18 14:53:00
UTC Time2018-06-18 15:25:04
Flight Rules vfr VFR
Wind100° at 10 kt
W.Decomp.*RWY 08: 9.9 kt HW 1.6 kt RCW
RWY 12: 8.6 kt HW 5.2 kt LCW
W.Rank100° ranks 2
Current wind is below 100° avg. (10.4)
Visibility9999 m
Phenomena:N/A
Clouds:N/A
Expected CloudBase > 4,000 ft AGL from Temp-Dew spread
CeilingNone
Temp21°C (ISA +11)
Dew Point11°C (53% RH)
AAT17.7°C
QNH1020 hPa
Density Alt3,448 ft
Elevation2,277 ft
Report Wrong Elevation
Raw Report
KGGW 181453Z AUTO 10010KT 10SM CLR 21/11 A3013 RMK AO2 SLP197
T02060111 50001=

Extra information for KGGW:More info

Metar Taf Metar & Taf Last 4 Metars F.Rules Stats Wind Profile Meteogram Temp Stats Airport Information Weather charts Add Link Nearby VenuesMetar ALERT Operation Metar Decoded Social comments

AIRNAV info for KGGW